sensor_id;sensor_type;location;lat;lon;timestamp;P1;durP1;ratioP1;P2;durP2;ratioP2
17253;SDS011;32542;52.832;13.816;2022-09-13T00:02:03;4.10;;;1.20;;
17253;SDS011;32542;52.832;13.816;2022-09-13T00:05:08;2.28;;;0.90;;
17253;SDS011;32542;52.832;13.816;2022-09-13T00:08:11;2.15;;;1.30;;
17253;SDS011;32542;52.832;13.816;2022-09-13T00:11:15;1.55;;;1.13;;
17253;SDS011;32542;52.832;13.816;2022-09-13T00:14:20;1.83;;;1.00;;
17253;SDS011;32542;52.832;13.816;2022-09-13T00:17:22;1.13;;;1.00;;
17253;SDS011;32542;52.832;13.816;2022-09-13T00:20:27;1.00;;;0.90;;
17253;SDS011;32542;52.832;13.816;2022-09-13T00:23:30;2.65;;;1.20;;
17253;SDS011;32542;52.832;13.816;2022-09-13T00:26:33;3.28;;;1.13;;
17253;SDS011;32542;52.832;13.816;2022-09-13T00:29:36;3.47;;;1.00;;
17253;SDS011;32542;52.832;13.816;2022-09-13T00:32:39;3.63;;;0.73;;
17253;SDS011;32542;52.832;13.816;2022-09-13T00:35:43;0.95;;;0.80;;
17253;SDS011;32542;52.832;13.816;2022-09-13T00:38:46;3.13;;;0.98;;
17253;SDS011;32542;52.832;13.816;2022-09-13T00:41:49;1.20;;;1.10;;
17253;SDS011;32542;52.832;13.816;2022-09-13T00:44:53;3.63;;;1.05;;
17253;SDS011;32542;52.832;13.816;2022-09-13T00:47:59;3.40;;;1.15;;
17253;SDS011;32542;52.832;13.816;2022-09-13T00:51:06;1.15;;;1.00;;
17253;SDS011;32542;52.832;13.816;2022-09-13T00:54:11;1.00;;;0.90;;
17253;SDS011;32542;52.832;13.816;2022-09-13T00:57:17;7.00;;;1.27;;
17253;SDS011;32542;52.832;13.816;2022-09-13T01:00:23;1.52;;;0.93;;
17253;SDS011;32542;52.832;13.816;2022-09-13T01:03:26;1.23;;;1.00;;
17253;SDS011;32542;52.832;13.816;2022-09-13T01:06:33;1.25;;;1.02;;
17253;SDS011;32542;52.832;13.816;2022-09-13T01:09:40;1.27;;;0.90;;
17253;SDS011;32542;52.832;13.816;2022-09-13T01:12:48;1.17;;;1.08;;
17253;SDS011;32542;52.832;13.816;2022-09-13T01:15:55;0.93;;;0.82;;
17253;SDS011;32542;52.832;13.816;2022-09-13T01:18:59;2.55;;;1.35;;
17253;SDS011;32542;52.832;13.816;2022-09-13T01:32:59;1.00;;;0.90;;
17253;SDS011;32542;52.832;13.816;2022-09-13T01:36:27;1.17;;;1.00;;
17253;SDS011;32542;52.832;13.816;2022-09-13T01:39:48;1.17;;;0.80;;
17253;SDS011;32542;52.832;13.816;2022-09-13T01:43:15;1.77;;;1.00;;
17253;SDS011;32542;52.832;13.816;2022-09-13T01:46:29;3.10;;;1.00;;
17253;SDS011;32542;52.832;13.816;2022-09-13T01:49:40;0.80;;;0.80;;
17253;SDS011;32542;52.832;13.816;2022-09-13T01:52:49;1.13;;;1.00;;
17253;SDS011;32542;52.832;13.816;2022-09-13T01:55:57;2.05;;;1.15;;
17253;SDS011;32542;52.832;13.816;2022-09-13T01:59:04;1.25;;;0.90;;
17253;SDS011;32542;52.832;13.816;2022-09-13T02:02:15;2.13;;;0.80;;
17253;SDS011;32542;52.832;13.816;2022-09-13T02:05:26;1.08;;;0.90;;
17253;SDS011;32542;52.832;13.816;2022-09-13T02:08:34;0.80;;;0.80;;
17253;SDS011;32542;52.832;13.816;2022-09-13T02:11:42;1.00;;;0.88;;
17253;SDS011;32542;52.832;13.816;2022-09-13T02:14:49;5.05;;;1.10;;
17253;SDS011;32542;52.832;13.816;2022-09-13T02:17:59;1.02;;;0.90;;
17253;SDS011;32542;52.832;13.816;2022-09-13T02:21:10;1.00;;;0.90;;
17253;SDS011;32542;52.832;13.816;2022-09-13T02:24:17;3.03;;;0.82;;
17253;SDS011;32542;52.832;13.816;2022-09-13T02:27:23;2.42;;;0.95;;
17253;SDS011;32542;52.832;13.816;2022-09-13T02:30:29;1.25;;;0.90;;
17253;SDS011;32542;52.832;13.816;2022-09-13T02:33:35;2.50;;;1.10;;
17253;SDS011;32542;52.832;13.816;2022-09-13T02:36:43;1.27;;;0.98;;
17253;SDS011;32542;52.832;13.816;2022-09-13T02:39:54;0.80;;;0.80;;
17253;SDS011;32542;52.832;13.816;2022-09-13T02:43:03;2.15;;;0.88;;
17253;SDS011;32542;52.832;13.816;2022-09-13T02:46:13;2.22;;;1.25;;
17253;SDS011;32542;52.832;13.816;2022-09-13T02:49:24;2.45;;;0.80;;
17253;SDS011;32542;52.832;13.816;2022-09-13T02:52:35;1.08;;;0.90;;
17253;SDS011;32542;52.832;13.816;2022-09-13T02:55:50;2.25;;;1.00;;
17253;SDS011;32542;52.832;13.816;2022-09-13T02:59:01;1.10;;;0.75;;
17253;SDS011;32542;52.832;13.816;2022-09-13T03:02:08;1.60;;;0.95;;
17253;SDS011;32542;52.832;13.816;2022-09-13T03:05:14;1.17;;;1.08;;
17253;SDS011;32542;52.832;13.816;2022-09-13T03:08:19;0.88;;;0.80;;
17253;SDS011;32542;52.832;13.816;2022-09-13T03:11:24;1.23;;;1.00;;
17253;SDS011;32542;52.832;13.816;2022-09-13T03:14:36;0.80;;;0.80;;
17253;SDS011;32542;52.832;13.816;2022-09-13T03:17:48;0.80;;;0.80;;
17253;SDS011;32542;52.832;13.816;2022-09-13T03:21:00;0.75;;;0.73;;
17253;SDS011;32542;52.832;13.816;2022-09-13T03:24:13;0.98;;;0.80;;
17253;SDS011;32542;52.832;13.816;2022-09-13T03:27:24;1.60;;;1.20;;
17253;SDS011;32542;52.832;13.816;2022-09-13T03:30:36;1.35;;;1.00;;
17253;SDS011;32542;52.832;13.816;2022-09-13T03:33:45;2.78;;;0.85;;
17253;SDS011;32542;52.832;13.816;2022-09-13T03:36:55;2.80;;;0.80;;
17253;SDS011;32542;52.832;13.816;2022-09-13T03:40:07;2.15;;;1.05;;
17253;SDS011;32542;52.832;13.816;2022-09-13T03:43:15;1.15;;;0.80;;
17253;SDS011;32542;52.832;13.816;2022-09-13T03:46:24;1.17;;;1.05;;
17253;SDS011;32542;52.832;13.816;2022-09-13T03:49:31;1.52;;;0.93;;
17253;SDS011;32542;52.832;13.816;2022-09-13T03:52:35;1.00;;;0.90;;
17253;SDS011;32542;52.832;13.816;2022-09-13T03:55:45;0.80;;;0.80;;
17253;SDS011;32542;52.832;13.816;2022-09-13T03:58:48;1.30;;;1.10;;
17253;SDS011;32542;52.832;13.816;2022-09-13T04:01:52;3.85;;;1.10;;
17253;SDS011;32542;52.832;13.816;2022-09-13T04:04:55;3.83;;;1.00;;
17253;SDS011;32542;52.832;13.816;2022-09-13T04:07:58;4.72;;;1.00;;
17253;SDS011;32542;52.832;13.816;2022-09-13T04:11:03;0.80;;;0.75;;
17253;SDS011;32542;52.832;13.816;2022-09-13T04:14:06;3.70;;;1.00;;
17253;SDS011;32542;52.832;13.816;2022-09-13T04:17:10;2.95;;;1.20;;
17253;SDS011;32542;52.832;13.816;2022-09-13T04:20:13;2.63;;;1.30;;
17253;SDS011;32542;52.832;13.816;2022-09-13T04:23:17;6.55;;;1.30;;
17253;SDS011;32542;52.832;13.816;2022-09-13T04:26:21;7.30;;;2.08;;
17253;SDS011;32542;52.832;13.816;2022-09-13T04:29:25;5.95;;;1.20;;
17253;SDS011;32542;52.832;13.816;2022-09-13T04:32:28;4.82;;;1.60;;
17253;SDS011;32542;52.832;13.816;2022-09-13T04:35:31;3.50;;;1.33;;
17253;SDS011;32542;52.832;13.816;2022-09-13T04:38:34;4.93;;;1.20;;
17253;SDS011;32542;52.832;13.816;2022-09-13T04:41:39;12.88;;;1.90;;
17253;SDS011;32542;52.832;13.816;2022-09-13T04:44:42;4.05;;;1.30;;
17253;SDS011;32542;52.832;13.816;2022-09-13T04:47:49;4.38;;;1.20;;
17253;SDS011;32542;52.832;13.816;2022-09-13T04:50:59;6.15;;;1.13;;
17253;SDS011;32542;52.832;13.816;2022-09-13T04:54:02;4.43;;;1.30;;
17253;SDS011;32542;52.832;13.816;2022-09-13T04:57:07;2.67;;;1.10;;
17253;SDS011;32542;52.832;13.816;2022-09-13T05:00:11;3.83;;;1.20;;
17253;SDS011;32542;52.832;13.816;2022-09-13T05:03:14;7.13;;;1.25;;
17253;SDS011;32542;52.832;13.816;2022-09-13T05:06:17;5.18;;;1.27;;
17253;SDS011;32542;52.832;13.816;2022-09-13T05:09:21;4.55;;;1.20;;
17253;SDS011;32542;52.832;13.816;2022-09-13T05:12:25;2.47;;;1.10;;
17253;SDS011;32542;52.832;13.816;2022-09-13T05:15:28;4.07;;;1.25;;
17253;SDS011;32542;52.832;13.816;2022-09-13T05:18:32;4.13;;;1.20;;
17253;SDS011;32542;52.832;13.816;2022-09-13T05:21:36;2.67;;;1.40;;
17253;SDS011;32542;52.832;13.816;2022-09-13T05:24:39;3.00;;;1.30;;
17253;SDS011;32542;52.832;13.816;2022-09-13T05:27:45;4.53;;;1.35;;
17253;SDS011;32542;52.832;13.816;2022-09-13T05:30:55;3.45;;;2.00;;
17253;SDS011;32542;52.832;13.816;2022-09-13T05:33:59;3.42;;;1.58;;
17253;SDS011;32542;52.832;13.816;2022-09-13T05:37:04;2.92;;;1.48;;
17253;SDS011;32542;52.832;13.816;2022-09-13T05:40:07;3.65;;;1.23;;
17253;SDS011;32542;52.832;13.816;2022-09-13T05:43:14;2.38;;;1.27;;
17253;SDS011;32542;52.832;13.816;2022-09-13T05:46:18;3.65;;;1.50;;
17253;SDS011;32542;52.832;13.816;2022-09-13T05:49:22;4.03;;;1.40;;
17253;SDS011;32542;52.832;13.816;2022-09-13T05:52:25;2.70;;;1.30;;
17253;SDS011;32542;52.832;13.816;2022-09-13T05:55:28;2.13;;;1.13;;
17253;SDS011;32542;52.832;13.816;2022-09-13T05:58:32;3.80;;;1.40;;
17253;SDS011;32542;52.832;13.816;2022-09-13T06:01:36;3.40;;;1.30;;
17253;SDS011;32542;52.832;13.816;2022-09-13T06:04:39;8.40;;;1.50;;
17253;SDS011;32542;52.832;13.816;2022-09-13T06:07:45;5.60;;;1.35;;
17253;SDS011;32542;52.832;13.816;2022-09-13T06:10:55;7.38;;;2.60;;
17253;SDS011;32542;52.832;13.816;2022-09-13T06:14:00;9.05;;;1.50;;
17253;SDS011;32542;52.832;13.816;2022-09-13T06:17:03;5.50;;;1.30;;
17253;SDS011;32542;52.832;13.816;2022-09-13T06:20:07;4.90;;;1.42;;
17253;SDS011;32542;52.832;13.816;2022-09-13T06:23:12;5.38;;;2.13;;
17253;SDS011;32542;52.832;13.816;2022-09-13T06:26:16;5.60;;;1.55;;
17253;SDS011;32542;52.832;13.816;2022-09-13T06:29:22;4.30;;;1.50;;
17253;SDS011;32542;52.832;13.816;2022-09-13T06:32:25;3.67;;;1.50;;
17253;SDS011;32542;52.832;13.816;2022-09-13T06:35:28;3.08;;;1.30;;
17253;SDS011;32542;52.832;13.816;2022-09-13T06:38:31;6.30;;;1.23;;
17253;SDS011;32542;52.832;13.816;2022-09-13T06:41:34;4.10;;;1.48;;
17253;SDS011;32542;52.832;13.816;2022-09-13T06:44:39;2.88;;;1.40;;
17253;SDS011;32542;52.832;13.816;2022-09-13T06:47:42;7.28;;;1.25;;
17253;SDS011;32542;52.832;13.816;2022-09-13T06:50:45;2.10;;;1.25;;
17253;SDS011;32542;52.832;13.816;2022-09-13T06:53:48;6.55;;;1.40;;
17253;SDS011;32542;52.832;13.816;2022-09-13T06:56:52;10.07;;;1.40;;
17253;SDS011;32542;52.832;13.816;2022-09-13T06:59:56;4.60;;;1.50;;
17253;SDS011;32542;52.832;13.816;2022-09-13T07:02:59;5.78;;;1.40;;
17253;SDS011;32542;52.832;13.816;2022-09-13T07:06:06;7.93;;;1.77;;
17253;SDS011;32542;52.832;13.816;2022-09-13T07:09:11;5.35;;;1.58;;
17253;SDS011;32542;52.832;13.816;2022-09-13T07:12:17;4.10;;;1.60;;
17253;SDS011;32542;52.832;13.816;2022-09-13T07:15:22;10.18;;;1.52;;
17253;SDS011;32542;52.832;13.816;2022-09-13T07:18:25;5.47;;;1.60;;
17253;SDS011;32542;52.832;13.816;2022-09-13T07:21:29;6.15;;;1.60;;
17253;SDS011;32542;52.832;13.816;2022-09-13T07:24:32;5.00;;;1.63;;
17253;SDS011;32542;52.832;13.816;2022-09-13T07:27:35;5.97;;;2.22;;
17253;SDS011;32542;52.832;13.816;2022-09-13T07:30:39;20.17;;;11.75;;
17253;SDS011;32542;52.832;13.816;2022-09-13T07:33:42;8.68;;;3.83;;
17253;SDS011;32542;52.832;13.816;2022-09-13T07:36:46;4.78;;;2.45;;
17253;SDS011;32542;52.832;13.816;2022-09-13T07:39:50;6.28;;;2.00;;
17253;SDS011;32542;52.832;13.816;2022-09-13T07:42:53;3.33;;;1.92;;
17253;SDS011;32542;52.832;13.816;2022-09-13T07:45:58;3.60;;;2.10;;
17253;SDS011;32542;52.832;13.816;2022-09-13T07:49:02;5.35;;;2.05;;
17253;SDS011;32542;52.832;13.816;2022-09-13T07:52:05;6.57;;;2.40;;
17253;SDS011;32542;52.832;13.816;2022-09-13T07:55:08;3.05;;;2.20;;
17253;SDS011;32542;52.832;13.816;2022-09-13T07:58:11;4.05;;;1.88;;
17253;SDS011;32542;52.832;13.816;2022-09-13T08:01:16;3.17;;;1.83;;
17253;SDS011;32542;52.832;13.816;2022-09-13T08:04:23;3.40;;;2.38;;
17253;SDS011;32542;52.832;13.816;2022-09-13T08:07:27;4.43;;;1.80;;
17253;SDS011;32542;52.832;13.816;2022-09-13T08:10:30;3.45;;;2.13;;
17253;SDS011;32542;52.832;13.816;2022-09-13T08:13:33;3.90;;;1.77;;
17253;SDS011;32542;52.832;13.816;2022-09-13T08:16:37;4.18;;;1.65;;
17253;SDS011;32542;52.832;13.816;2022-09-13T08:19:40;4.22;;;2.05;;
17253;SDS011;32542;52.832;13.816;2022-09-13T08:22:43;3.90;;;1.95;;
17253;SDS011;32542;52.832;13.816;2022-09-13T08:25:46;4.88;;;1.98;;
17253;SDS011;32542;52.832;13.816;2022-09-13T08:28:54;3.60;;;1.80;;
17253;SDS011;32542;52.832;13.816;2022-09-13T08:31:59;5.07;;;1.98;;
17253;SDS011;32542;52.832;13.816;2022-09-13T08:35:02;3.67;;;2.15;;
17253;SDS011;32542;52.832;13.816;2022-09-13T08:38:05;5.55;;;2.08;;
17253;SDS011;32542;52.832;13.816;2022-09-13T08:41:17;4.15;;;1.98;;
17253;SDS011;32542;52.832;13.816;2022-09-13T08:44:37;2.20;;;1.73;;
17253;SDS011;32542;52.832;13.816;2022-09-13T08:47:49;3.20;;;1.70;;
17253;SDS011;32542;52.832;13.816;2022-09-13T08:50:57;2.40;;;1.80;;
17253;SDS011;32542;52.832;13.816;2022-09-13T08:54:07;2.95;;;2.05;;
17253;SDS011;32542;52.832;13.816;2022-09-13T08:57:14;4.82;;;2.40;;
17253;SDS011;32542;52.832;13.816;2022-09-13T09:00:22;5.68;;;1.98;;
17253;SDS011;32542;52.832;13.816;2022-09-13T09:03:37;8.93;;;1.90;;
17253;SDS011;32542;52.832;13.816;2022-09-13T09:06:44;7.63;;;1.95;;
17253;SDS011;32542;52.832;13.816;2022-09-13T09:09:49;5.43;;;2.67;;
17253;SDS011;32542;52.832;13.816;2022-09-13T09:12:57;4.70;;;1.85;;
17253;SDS011;32542;52.832;13.816;2022-09-13T09:16:05;2.92;;;1.77;;
17253;SDS011;32542;52.832;13.816;2022-09-13T09:19:17;3.72;;;2.00;;
17253;SDS011;32542;52.832;13.816;2022-09-13T09:22:23;5.03;;;1.95;;
17253;SDS011;32542;52.832;13.816;2022-09-13T09:25:34;3.40;;;1.70;;
17253;SDS011;32542;52.832;13.816;2022-09-13T09:28:37;6.10;;;1.88;;
17253;SDS011;32542;52.832;13.816;2022-09-13T09:31:41;3.88;;;1.90;;
17253;SDS011;32542;52.832;13.816;2022-09-13T09:35:02;4.25;;;2.00;;
17253;SDS011;32542;52.832;13.816;2022-09-13T09:38:22;4.10;;;2.13;;
17253;SDS011;32542;52.832;13.816;2022-09-13T09:41:40;4.30;;;1.90;;
17253;SDS011;32542;52.832;13.816;2022-09-13T09:44:45;7.80;;;2.00;;
17253;SDS011;32542;52.832;13.816;2022-09-13T09:47:51;4.90;;;2.30;;
17253;SDS011;32542;52.832;13.816;2022-09-13T09:50:57;3.88;;;2.10;;
17253;SDS011;32542;52.832;13.816;2022-09-13T09:54:01;4.43;;;1.90;;
17253;SDS011;32542;52.832;13.816;2022-09-13T09:57:06;2.28;;;1.85;;
17253;SDS011;32542;52.832;13.816;2022-09-13T10:00:10;3.42;;;1.73;;
17253;SDS011;32542;52.832;13.816;2022-09-13T10:03:16;5.38;;;1.67;;
17253;SDS011;32542;52.832;13.816;2022-09-13T10:06:22;3.15;;;2.00;;
17253;SDS011;32542;52.832;13.816;2022-09-13T10:09:28;6.93;;;2.08;;
17253;SDS011;32542;52.832;13.816;2022-09-13T10:12:31;3.33;;;1.98;;
17253;SDS011;32542;52.832;13.816;2022-09-13T10:15:37;5.15;;;2.10;;
17253;SDS011;32542;52.832;13.816;2022-09-13T10:18:55;3.45;;;1.95;;
17253;SDS011;32542;52.832;13.816;2022-09-13T10:22:26;2.60;;;1.52;;
17253;SDS011;32542;52.832;13.816;2022-09-13T10:25:30;3.28;;;1.67;;
17253;SDS011;32542;52.832;13.816;2022-09-13T10:28:34;3.90;;;1.70;;
17253;SDS011;32542;52.832;13.816;2022-09-13T10:31:43;5.30;;;2.40;;
17253;SDS011;32542;52.832;13.816;2022-09-13T10:34:48;2.97;;;1.85;;
17253;SDS011;32542;52.832;13.816;2022-09-13T10:37:53;1.92;;;1.73;;
17253;SDS011;32542;52.832;13.816;2022-09-13T10:40:57;2.60;;;1.95;;
17253;SDS011;32542;52.832;13.816;2022-09-13T10:44:05;4.05;;;2.13;;
17253;SDS011;32542;52.832;13.816;2022-09-13T10:47:24;3.42;;;1.98;;
17253;SDS011;32542;52.832;13.816;2022-09-13T10:50:29;5.13;;;1.88;;
17253;SDS011;32542;52.832;13.816;2022-09-13T10:53:39;3.58;;;2.03;;
17253;SDS011;32542;52.832;13.816;2022-09-13T10:56:43;6.45;;;2.17;;
17253;SDS011;32542;52.832;13.816;2022-09-13T10:59:51;4.60;;;2.10;;
17253;SDS011;32542;52.832;13.816;2022-09-13T11:06:28;3.38;;;2.15;;
17253;SDS011;32542;52.832;13.816;2022-09-13T11:09:38;3.17;;;1.90;;
17253;SDS011;32542;52.832;13.816;2022-09-13T11:12:49;3.72;;;1.83;;
17253;SDS011;32542;52.832;13.816;2022-09-13T11:15:57;3.10;;;1.92;;
17253;SDS011;32542;52.832;13.816;2022-09-13T11:19:18;2.35;;;1.70;;
17253;SDS011;32542;52.832;13.816;2022-09-13T11:22:46;3.33;;;1.70;;
17253;SDS011;32542;52.832;13.816;2022-09-13T11:26:15;2.15;;;1.80;;
17253;SDS011;32542;52.832;13.816;2022-09-13T11:29:32;3.15;;;2.13;;
17253;SDS011;32542;52.832;13.816;2022-09-13T11:33:00;4.10;;;1.90;;
17253;SDS011;32542;52.832;13.816;2022-09-13T11:40:02;2.85;;;1.90;;
17253;SDS011;32542;52.832;13.816;2022-09-13T11:43:35;5.35;;;1.90;;
17253;SDS011;32542;52.832;13.816;2022-09-13T11:46:49;3.55;;;1.92;;
17253;SDS011;32542;52.832;13.816;2022-09-13T11:53:39;3.83;;;2.00;;
17253;SDS011;32542;52.832;13.816;2022-09-13T11:56:54;2.55;;;1.92;;
17253;SDS011;32542;52.832;13.816;2022-09-13T12:00:03;4.63;;;1.83;;
17253;SDS011;32542;52.832;13.816;2022-09-13T12:03:10;2.95;;;2.13;;
17253;SDS011;32542;52.832;13.816;2022-09-13T12:06:19;10.27;;;3.33;;
17253;SDS011;32542;52.832;13.816;2022-09-13T12:09:28;11.82;;;4.82;;
17253;SDS011;32542;52.832;13.816;2022-09-13T12:12:36;12.35;;;6.57;;
17253;SDS011;32542;52.832;13.816;2022-09-13T12:15:41;20.30;;;6.95;;
17253;SDS011;32542;52.832;13.816;2022-09-13T12:18:48;17.52;;;7.65;;
17253;SDS011;32542;52.832;13.816;2022-09-13T12:21:55;21.23;;;7.43;;
17253;SDS011;32542;52.832;13.816;2022-09-13T12:25:02;18.30;;;6.80;;
17253;SDS011;32542;52.832;13.816;2022-09-13T12:28:11;15.35;;;6.22;;
17253;SDS011;32542;52.832;13.816;2022-09-13T12:31:21;17.55;;;6.28;;
17253;SDS011;32542;52.832;13.816;2022-09-13T12:34:29;16.42;;;5.88;;
17253;SDS011;32542;52.832;13.816;2022-09-13T12:38:04;16.73;;;5.95;;
17253;SDS011;32542;52.832;13.816;2022-09-13T12:41:34;15.65;;;6.07;;
17253;SDS011;32542;52.832;13.816;2022-09-13T12:44:54;14.75;;;5.55;;
17253;SDS011;32542;52.832;13.816;2022-09-13T12:48:13;13.02;;;5.60;;
17253;SDS011;32542;52.832;13.816;2022-09-13T12:51:29;11.13;;;5.90;;
17253;SDS011;32542;52.832;13.816;2022-09-13T12:54:48;10.32;;;5.00;;
17253;SDS011;32542;52.832;13.816;2022-09-13T12:58:40;12.82;;;4.95;;
17253;SDS011;32542;52.832;13.816;2022-09-13T13:02:02;10.93;;;4.80;;
17253;SDS011;32542;52.832;13.816;2022-09-13T13:05:27;8.90;;;4.20;;
17253;SDS011;32542;52.832;13.816;2022-09-13T13:08:34;11.57;;;5.15;;
17253;SDS011;32542;52.832;13.816;2022-09-13T13:11:41;8.48;;;4.40;;
17253;SDS011;32542;52.832;13.816;2022-09-13T13:14:47;9.00;;;4.40;;
17253;SDS011;32542;52.832;13.816;2022-09-13T13:17:54;8.13;;;4.55;;
17253;SDS011;32542;52.832;13.816;2022-09-13T13:24:45;7.15;;;4.07;;
17253;SDS011;32542;52.832;13.816;2022-09-13T13:27:49;9.65;;;4.07;;
17253;SDS011;32542;52.832;13.816;2022-09-13T13:30:55;10.40;;;5.07;;
17253;SDS011;32542;52.832;13.816;2022-09-13T13:34:00;12.55;;;4.68;;
17253;SDS011;32542;52.832;13.816;2022-09-13T13:37:20;8.32;;;3.60;;
17253;SDS011;32542;52.832;13.816;2022-09-13T13:40:41;8.35;;;4.18;;
17253;SDS011;32542;52.832;13.816;2022-09-13T13:43:44;7.13;;;3.88;;
17253;SDS011;32542;52.832;13.816;2022-09-13T13:46:48;7.80;;;3.92;;
17253;SDS011;32542;52.832;13.816;2022-09-13T13:49:52;7.97;;;3.58;;
17253;SDS011;32542;52.832;13.816;2022-09-13T13:53:20;6.45;;;3.83;;
17253;SDS011;32542;52.832;13.816;2022-09-13T13:56:32;10.98;;;3.88;;
17253;SDS011;32542;52.832;13.816;2022-09-13T13:59:45;3.95;;;2.90;;
17253;SDS011;32542;52.832;13.816;2022-09-13T14:02:56;10.30;;;4.35;;
17253;SDS011;32542;52.832;13.816;2022-09-13T14:06:11;8.23;;;3.60;;
17253;SDS011;32542;52.832;13.816;2022-09-13T14:09:24;8.98;;;3.92;;
17253;SDS011;32542;52.832;13.816;2022-09-13T14:12:37;8.45;;;3.58;;
17253;SDS011;32542;52.832;13.816;2022-09-13T14:15:52;6.20;;;3.80;;
17253;SDS011;32542;52.832;13.816;2022-09-13T14:19:08;6.18;;;3.40;;
17253;SDS011;32542;52.832;13.816;2022-09-13T14:22:21;5.78;;;3.15;;
17253;SDS011;32542;52.832;13.816;2022-09-13T14:25:27;4.68;;;3.40;;
17253;SDS011;32542;52.832;13.816;2022-09-13T14:28:30;4.60;;;3.08;;
17253;SDS011;32542;52.832;13.816;2022-09-13T14:31:34;6.10;;;3.50;;
17253;SDS011;32542;52.832;13.816;2022-09-13T14:34:48;4.10;;;3.00;;
17253;SDS011;32542;52.832;13.816;2022-09-13T14:37:53;5.40;;;3.20;;
17253;SDS011;32542;52.832;13.816;2022-09-13T14:41:00;6.75;;;3.50;;
17253;SDS011;32542;52.832;13.816;2022-09-13T14:44:14;5.43;;;2.95;;
17253;SDS011;32542;52.832;13.816;2022-09-13T14:47:28;9.02;;;3.50;;
17253;SDS011;32542;52.832;13.816;2022-09-13T14:50:37;4.68;;;2.80;;
17253;SDS011;32542;52.832;13.816;2022-09-13T14:53:44;8.82;;;3.50;;
17253;SDS011;32542;52.832;13.816;2022-09-13T14:56:53;5.60;;;2.65;;
17253;SDS011;32542;52.832;13.816;2022-09-13T14:59:59;6.72;;;3.00;;
17253;SDS011;32542;52.832;13.816;2022-09-13T15:03:09;5.25;;;3.00;;
17253;SDS011;32542;52.832;13.816;2022-09-13T15:06:19;4.95;;;2.65;;
17253;SDS011;32542;52.832;13.816;2022-09-13T15:09:25;3.08;;;2.70;;
17253;SDS011;32542;52.832;13.816;2022-09-13T15:12:31;5.75;;;2.50;;
17253;SDS011;32542;52.832;13.816;2022-09-13T15:15:35;6.68;;;2.85;;
17253;SDS011;32542;52.832;13.816;2022-09-13T15:18:39;3.05;;;2.47;;
17253;SDS011;32542;52.832;13.816;2022-09-13T15:21:42;4.43;;;2.60;;
17253;SDS011;32542;52.832;13.816;2022-09-13T15:24:47;3.95;;;2.40;;
17253;SDS011;32542;52.832;13.816;2022-09-13T15:27:53;4.07;;;2.20;;
17253;SDS011;32542;52.832;13.816;2022-09-13T15:30:58;3.63;;;2.20;;
17253;SDS011;32542;52.832;13.816;2022-09-13T15:34:12;2.97;;;2.03;;
17253;SDS011;32542;52.832;13.816;2022-09-13T15:37:31;4.35;;;2.00;;
17253;SDS011;32542;52.832;13.816;2022-09-13T15:40:40;3.97;;;2.40;;
17253;SDS011;32542;52.832;13.816;2022-09-13T15:43:47;5.82;;;2.58;;
17253;SDS011;32542;52.832;13.816;2022-09-13T15:46:52;4.07;;;2.40;;
17253;SDS011;32542;52.832;13.816;2022-09-13T15:49:56;3.75;;;2.38;;
17253;SDS011;32542;52.832;13.816;2022-09-13T15:52:59;3.70;;;2.10;;
17253;SDS011;32542;52.832;13.816;2022-09-13T15:56:03;2.95;;;2.08;;
17253;SDS011;32542;52.832;13.816;2022-09-13T15:59:09;2.97;;;2.10;;
17253;SDS011;32542;52.832;13.816;2022-09-13T16:02:16;4.90;;;2.42;;
17253;SDS011;32542;52.832;13.816;2022-09-13T16:05:21;4.03;;;2.17;;
17253;SDS011;32542;52.832;13.816;2022-09-13T16:08:24;3.80;;;2.03;;
17253;SDS011;32542;52.832;13.816;2022-09-13T16:11:27;2.50;;;1.98;;
17253;SDS011;32542;52.832;13.816;2022-09-13T16:14:32;5.18;;;2.50;;
17253;SDS011;32542;52.832;13.816;2022-09-13T16:17:35;3.80;;;2.15;;
17253;SDS011;32542;52.832;13.816;2022-09-13T16:20:38;4.93;;;2.00;;
17253;SDS011;32542;52.832;13.816;2022-09-13T16:23:41;4.00;;;2.05;;
17253;SDS011;32542;52.832;13.816;2022-09-13T16:26:44;2.85;;;2.15;;
17253;SDS011;32542;52.832;13.816;2022-09-13T16:29:48;3.33;;;1.95;;
17253;SDS011;32542;52.832;13.816;2022-09-13T16:32:52;3.03;;;2.05;;
17253;SDS011;32542;52.832;13.816;2022-09-13T16:35:55;3.25;;;1.70;;
17253;SDS011;32542;52.832;13.816;2022-09-13T16:39:03;6.57;;;1.92;;
17253;SDS011;32542;52.832;13.816;2022-09-13T16:42:06;4.78;;;2.00;;
17253;SDS011;32542;52.832;13.816;2022-09-13T16:45:11;2.53;;;1.90;;
17253;SDS011;32542;52.832;13.816;2022-09-13T16:48:15;5.93;;;1.92;;
17253;SDS011;32542;52.832;13.816;2022-09-13T16:51:18;3.17;;;2.00;;
17253;SDS011;32542;52.832;13.816;2022-09-13T16:54:22;3.58;;;2.00;;
17253;SDS011;32542;52.832;13.816;2022-09-13T16:57:25;2.45;;;1.90;;
17253;SDS011;32542;52.832;13.816;2022-09-13T17:00:29;2.35;;;1.40;;
17253;SDS011;32542;52.832;13.816;2022-09-13T17:03:32;3.83;;;1.90;;
17253;SDS011;32542;52.832;13.816;2022-09-13T17:06:36;2.13;;;1.75;;
17253;SDS011;32542;52.832;13.816;2022-09-13T17:09:39;3.17;;;1.67;;
17253;SDS011;32542;52.832;13.816;2022-09-13T17:12:43;2.50;;;1.63;;
17253;SDS011;32542;52.832;13.816;2022-09-13T17:15:47;4.15;;;1.90;;
17253;SDS011;32542;52.832;13.816;2022-09-13T17:18:57;3.13;;;1.55;;
17253;SDS011;32542;52.832;13.816;2022-09-13T17:22:06;8.48;;;2.17;;
17253;SDS011;32542;52.832;13.816;2022-09-13T17:25:11;10.48;;;2.05;;
17253;SDS011;32542;52.832;13.816;2022-09-13T17:28:15;7.30;;;1.70;;
17253;SDS011;32542;52.832;13.816;2022-09-13T17:31:20;6.32;;;2.08;;
17253;SDS011;32542;52.832;13.816;2022-09-13T17:34:23;6.20;;;1.80;;
17253;SDS011;32542;52.832;13.816;2022-09-13T17:37:26;4.00;;;1.88;;
17253;SDS011;32542;52.832;13.816;2022-09-13T17:40:29;7.38;;;1.67;;
17253;SDS011;32542;52.832;13.816;2022-09-13T17:43:33;8.75;;;1.80;;
17253;SDS011;32542;52.832;13.816;2022-09-13T17:46:38;3.92;;;1.42;;
17253;SDS011;32542;52.832;13.816;2022-09-13T17:49:41;3.55;;;1.85;;
17253;SDS011;32542;52.832;13.816;2022-09-13T17:52:46;2.65;;;1.48;;
17253;SDS011;32542;52.832;13.816;2022-09-13T17:55:49;2.30;;;1.70;;
17253;SDS011;32542;52.832;13.816;2022-09-13T17:58:52;2.42;;;1.88;;
17253;SDS011;32542;52.832;13.816;2022-09-13T18:01:56;3.50;;;1.58;;
17253;SDS011;32542;52.832;13.816;2022-09-13T18:05:01;5.47;;;1.90;;
17253;SDS011;32542;52.832;13.816;2022-09-13T18:08:08;5.57;;;2.03;;
17253;SDS011;32542;52.832;13.816;2022-09-13T18:11:13;4.75;;;2.00;;
17253;SDS011;32542;52.832;13.816;2022-09-13T18:14:22;2.92;;;1.67;;
17253;SDS011;32542;52.832;13.816;2022-09-13T18:17:29;5.13;;;2.63;;
17253;SDS011;32542;52.832;13.816;2022-09-13T18:20:32;3.92;;;1.50;;
17253;SDS011;32542;52.832;13.816;2022-09-13T18:23:41;8.15;;;2.05;;
17253;SDS011;32542;52.832;13.816;2022-09-13T18:26:44;4.38;;;2.00;;
17253;SDS011;32542;52.832;13.816;2022-09-13T18:29:47;2.83;;;1.70;;
17253;SDS011;32542;52.832;13.816;2022-09-13T18:32:51;3.03;;;1.75;;
17253;SDS011;32542;52.832;13.816;2022-09-13T18:35:55;5.72;;;1.77;;
17253;SDS011;32542;52.832;13.816;2022-09-13T18:39:00;6.53;;;1.92;;
17253;SDS011;32542;52.832;13.816;2022-09-13T18:42:04;8.45;;;2.00;;
17253;SDS011;32542;52.832;13.816;2022-09-13T18:45:08;2.90;;;1.80;;
17253;SDS011;32542;52.832;13.816;2022-09-13T18:48:12;3.75;;;1.55;;
17253;SDS011;32542;52.832;13.816;2022-09-13T18:51:16;2.85;;;1.90;;
17253;SDS011;32542;52.832;13.816;2022-09-13T18:54:20;5.07;;;2.10;;
17253;SDS011;32542;52.832;13.816;2022-09-13T18:57:23;2.78;;;1.70;;